sensor_id;sensor_type;location;lat;lon;timestamp;P1;durP1;ratioP1;P2;durP2;ratioP2
26512;SDS011;14186;53.822;10.152;2022-07-17T00:02:43;7.97;;;1.83;;
26512;SDS011;14186;53.822;10.152;2022-07-17T00:07:43;5.97;;;1.50;;
26512;SDS011;14186;53.822;10.152;2022-07-17T00:12:44;4.63;;;1.45;;
26512;SDS011;14186;53.822;10.152;2022-07-17T00:17:45;6.45;;;1.30;;
26512;SDS011;14186;53.822;10.152;2022-07-17T00:22:45;10.25;;;1.67;;
26512;SDS011;14186;53.822;10.152;2022-07-17T00:27:46;7.10;;;1.63;;
26512;SDS011;14186;53.822;10.152;2022-07-17T00:32:48;7.65;;;1.55;;
26512;SDS011;14186;53.822;10.152;2022-07-17T00:37:48;7.53;;;1.50;;
26512;SDS011;14186;53.822;10.152;2022-07-17T00:42:49;7.85;;;1.83;;
26512;SDS011;14186;53.822;10.152;2022-07-17T00:47:52;7.47;;;1.65;;
26512;SDS011;14186;53.822;10.152;2022-07-17T00:52:52;8.13;;;1.80;;
26512;SDS011;14186;53.822;10.152;2022-07-17T00:57:53;6.93;;;2.42;;
26512;SDS011;14186;53.822;10.152;2022-07-17T01:02:56;7.15;;;1.60;;
26512;SDS011;14186;53.822;10.152;2022-07-17T01:07:56;8.88;;;2.05;;
26512;SDS011;14186;53.822;10.152;2022-07-17T01:12:56;12.90;;;2.45;;
26512;SDS011;14186;53.822;10.152;2022-07-17T01:17:58;10.48;;;1.88;;
26512;SDS011;14186;53.822;10.152;2022-07-17T01:23:00;6.97;;;2.03;;
26512;SDS011;14186;53.822;10.152;2022-07-17T01:28:00;8.32;;;1.92;;
26512;SDS011;14186;53.822;10.152;2022-07-17T01:33:01;8.48;;;2.13;;
26512;SDS011;14186;53.822;10.152;2022-07-17T01:38:03;12.80;;;2.60;;
26512;SDS011;14186;53.822;10.152;2022-07-17T01:43:03;9.13;;;2.38;;
26512;SDS011;14186;53.822;10.152;2022-07-17T01:48:04;11.48;;;2.65;;
26512;SDS011;14186;53.822;10.152;2022-07-17T01:53:05;10.57;;;2.80;;
26512;SDS011;14186;53.822;10.152;2022-07-17T01:58:06;10.48;;;2.40;;
26512;SDS011;14186;53.822;10.152;2022-07-17T02:03:07;6.55;;;2.20;;
26512;SDS011;14186;53.822;10.152;2022-07-17T02:08:09;6.43;;;1.90;;
26512;SDS011;14186;53.822;10.152;2022-07-17T02:13:10;9.48;;;2.55;;
26512;SDS011;14186;53.822;10.152;2022-07-17T02:18:10;10.60;;;2.20;;
26512;SDS011;14186;53.822;10.152;2022-07-17T02:23:11;11.48;;;2.22;;
26512;SDS011;14186;53.822;10.152;2022-07-17T02:28:12;10.25;;;2.67;;
26512;SDS011;14186;53.822;10.152;2022-07-17T02:33:12;10.18;;;2.58;;
26512;SDS011;14186;53.822;10.152;2022-07-17T02:38:14;9.65;;;2.83;;
26512;SDS011;14186;53.822;10.152;2022-07-17T02:43:14;9.35;;;2.75;;
26512;SDS011;14186;53.822;10.152;2022-07-17T02:48:14;9.50;;;2.55;;
26512;SDS011;14186;53.822;10.152;2022-07-17T02:53:16;12.40;;;2.90;;
26512;SDS011;14186;53.822;10.152;2022-07-17T02:58:17;12.27;;;2.85;;
26512;SDS011;14186;53.822;10.152;2022-07-17T03:03:17;8.40;;;2.70;;
26512;SDS011;14186;53.822;10.152;2022-07-17T03:08:19;7.68;;;2.92;;
26512;SDS011;14186;53.822;10.152;2022-07-17T03:13:19;14.02;;;4.03;;
26512;SDS011;14186;53.822;10.152;2022-07-17T03:18:21;6.50;;;2.67;;
26512;SDS011;14186;53.822;10.152;2022-07-17T03:23:23;9.15;;;2.92;;
26512;SDS011;14186;53.822;10.152;2022-07-17T03:28:23;8.57;;;2.58;;
26512;SDS011;14186;53.822;10.152;2022-07-17T03:33:23;9.57;;;2.50;;
26512;SDS011;14186;53.822;10.152;2022-07-17T03:38:25;7.70;;;2.65;;
26512;SDS011;14186;53.822;10.152;2022-07-17T03:43:25;11.13;;;2.42;;
26512;SDS011;14186;53.822;10.152;2022-07-17T03:48:29;8.90;;;2.17;;
26512;SDS011;14186;53.822;10.152;2022-07-17T03:53:31;13.77;;;3.90;;
26512;SDS011;14186;53.822;10.152;2022-07-17T03:58:32;10.55;;;2.70;;
26512;SDS011;14186;53.822;10.152;2022-07-17T04:03:32;6.85;;;2.13;;
26512;SDS011;14186;53.822;10.152;2022-07-17T04:08:34;10.90;;;2.58;;
26512;SDS011;14186;53.822;10.152;2022-07-17T04:13:36;9.02;;;2.25;;
26512;SDS011;14186;53.822;10.152;2022-07-17T04:18:36;6.45;;;2.20;;
26512;SDS011;14186;53.822;10.152;2022-07-17T04:23:38;8.55;;;2.00;;
26512;SDS011;14186;53.822;10.152;2022-07-17T04:28:38;5.43;;;2.05;;
26512;SDS011;14186;53.822;10.152;2022-07-17T04:33:38;7.88;;;1.70;;
26512;SDS011;14186;53.822;10.152;2022-07-17T04:38:48;9.55;;;1.90;;
26512;SDS011;14186;53.822;10.152;2022-07-17T04:43:48;7.97;;;1.77;;
26512;SDS011;14186;53.822;10.152;2022-07-17T04:48:49;9.98;;;1.55;;
26512;SDS011;14186;53.822;10.152;2022-07-17T04:53:52;7.45;;;1.52;;
26512;SDS011;14186;53.822;10.152;2022-07-17T04:58:52;8.35;;;1.90;;
26512;SDS011;14186;53.822;10.152;2022-07-17T05:03:52;6.88;;;1.48;;
26512;SDS011;14186;53.822;10.152;2022-07-17T05:08:54;7.63;;;1.90;;
26512;SDS011;14186;53.822;10.152;2022-07-17T05:13:54;4.53;;;1.38;;
26512;SDS011;14186;53.822;10.152;2022-07-17T05:18:54;6.22;;;1.42;;
26512;SDS011;14186;53.822;10.152;2022-07-17T05:23:57;5.97;;;1.58;;
26512;SDS011;14186;53.822;10.152;2022-07-17T05:28:57;8.85;;;1.83;;
26512;SDS011;14186;53.822;10.152;2022-07-17T05:33:57;8.70;;;2.03;;
26512;SDS011;14186;53.822;10.152;2022-07-17T05:39:00;4.77;;;1.37;;
26512;SDS011;14186;53.822;10.152;2022-07-17T05:44:01;6.53;;;1.50;;
26512;SDS011;14186;53.822;10.152;2022-07-17T05:49:02;6.03;;;1.35;;
26512;SDS011;14186;53.822;10.152;2022-07-17T05:54:04;8.40;;;1.85;;
26512;SDS011;14186;53.822;10.152;2022-07-17T05:59:04;7.53;;;1.20;;
26512;SDS011;14186;53.822;10.152;2022-07-17T06:04:04;6.20;;;1.60;;
26512;SDS011;14186;53.822;10.152;2022-07-17T06:09:05;7.00;;;1.30;;
26512;SDS011;14186;53.822;10.152;2022-07-17T06:14:06;4.90;;;1.50;;
26512;SDS011;14186;53.822;10.152;2022-07-17T06:19:06;6.57;;;1.98;;
26512;SDS011;14186;53.822;10.152;2022-07-17T06:24:08;6.22;;;1.20;;
26512;SDS011;14186;53.822;10.152;2022-07-17T06:29:08;4.32;;;1.10;;
26512;SDS011;14186;53.822;10.152;2022-07-17T06:34:08;6.72;;;1.00;;
26512;SDS011;14186;53.822;10.152;2022-07-17T06:39:10;6.32;;;1.30;;
26512;SDS011;14186;53.822;10.152;2022-07-17T06:44:10;4.47;;;0.88;;
26512;SDS011;14186;53.822;10.152;2022-07-17T06:49:10;7.68;;;1.08;;
26512;SDS011;14186;53.822;10.152;2022-07-17T06:54:12;7.63;;;1.10;;
26512;SDS011;14186;53.822;10.152;2022-07-17T06:59:12;7.55;;;1.48;;
26512;SDS011;14186;53.822;10.152;2022-07-17T07:04:12;8.65;;;1.60;;
26512;SDS011;14186;53.822;10.152;2022-07-17T07:09:15;6.22;;;1.17;;
26512;SDS011;14186;53.822;10.152;2022-07-17T07:14:15;6.13;;;1.45;;
26512;SDS011;14186;53.822;10.152;2022-07-17T07:19:15;4.85;;;1.00;;
26512;SDS011;14186;53.822;10.152;2022-07-17T07:24:17;6.32;;;0.90;;
26512;SDS011;14186;53.822;10.152;2022-07-17T07:29:17;10.65;;;1.48;;
26512;SDS011;14186;53.822;10.152;2022-07-17T07:34:17;7.10;;;1.52;;
26512;SDS011;14186;53.822;10.152;2022-07-17T07:39:20;4.95;;;1.15;;
26512;SDS011;14186;53.822;10.152;2022-07-17T07:44:20;7.07;;;1.10;;
26512;SDS011;14186;53.822;10.152;2022-07-17T07:49:21;6.57;;;1.13;;
26512;SDS011;14186;53.822;10.152;2022-07-17T07:54:23;6.70;;;1.30;;
26512;SDS011;14186;53.822;10.152;2022-07-17T07:59:29;4.93;;;1.30;;
26512;SDS011;14186;53.822;10.152;2022-07-17T08:04:30;8.30;;;1.00;;
26512;SDS011;14186;53.822;10.152;2022-07-17T08:09:31;4.47;;;0.80;;
26512;SDS011;14186;53.822;10.152;2022-07-17T08:14:31;5.97;;;1.00;;
26512;SDS011;14186;53.822;10.152;2022-07-17T08:19:32;6.18;;;0.90;;
26512;SDS011;14186;53.822;10.152;2022-07-17T08:24:33;5.80;;;1.23;;
26512;SDS011;14186;53.822;10.152;2022-07-17T08:29:40;8.77;;;1.30;;
26512;SDS011;14186;53.822;10.152;2022-07-17T08:34:41;5.75;;;1.15;;
26512;SDS011;14186;53.822;10.152;2022-07-17T08:39:42;4.78;;;1.02;;
26512;SDS011;14186;53.822;10.152;2022-07-17T08:44:43;7.05;;;1.67;;
26512;SDS011;14186;53.822;10.152;2022-07-17T08:49:44;3.88;;;1.17;;
26512;SDS011;14186;53.822;10.152;2022-07-17T08:54:45;5.68;;;1.45;;
26512;SDS011;14186;53.822;10.152;2022-07-17T08:59:47;7.30;;;1.33;;
26512;SDS011;14186;53.822;10.152;2022-07-17T09:04:52;5.72;;;1.10;;
26512;SDS011;14186;53.822;10.152;2022-07-17T09:14:54;3.05;;;0.85;;
26512;SDS011;14186;53.822;10.152;2022-07-17T09:19:55;5.68;;;1.20;;
26512;SDS011;14186;53.822;10.152;2022-07-17T09:24:56;5.38;;;1.02;;
26512;SDS011;14186;53.822;10.152;2022-07-17T09:29:59;2.67;;;1.00;;
26512;SDS011;14186;53.822;10.152;2022-07-17T09:35:00;4.68;;;0.90;;
26512;SDS011;14186;53.822;10.152;2022-07-17T09:40:00;5.38;;;1.13;;
26512;SDS011;14186;53.822;10.152;2022-07-17T09:45:03;6.50;;;1.20;;
26512;SDS011;14186;53.822;10.152;2022-07-17T09:50:07;7.15;;;1.67;;
26512;SDS011;14186;53.822;10.152;2022-07-17T09:55:07;4.25;;;1.25;;
26512;SDS011;14186;53.822;10.152;2022-07-17T10:00:09;6.45;;;1.42;;
26512;SDS011;14186;53.822;10.152;2022-07-17T10:05:12;2.85;;;1.00;;
26512;SDS011;14186;53.822;10.152;2022-07-17T10:10:12;4.38;;;1.15;;
26512;SDS011;14186;53.822;10.152;2022-07-17T10:15:14;4.28;;;1.20;;
26512;SDS011;14186;53.822;10.152;2022-07-17T10:20:23;6.30;;;0.93;;
26512;SDS011;14186;53.822;10.152;2022-07-17T10:25:24;4.22;;;1.10;;
26512;SDS011;14186;53.822;10.152;2022-07-17T10:30:26;5.45;;;0.98;;
26512;SDS011;14186;53.822;10.152;2022-07-17T10:35:27;4.72;;;1.05;;
26512;SDS011;14186;53.822;10.152;2022-07-17T10:40:28;2.95;;;0.98;;
26512;SDS011;14186;53.822;10.152;2022-07-17T10:45:31;2.85;;;0.80;;
26512;SDS011;14186;53.822;10.152;2022-07-17T10:50:32;4.18;;;1.15;;
26512;SDS011;14186;53.822;10.152;2022-07-17T10:55:33;3.08;;;0.60;;
26512;SDS011;14186;53.822;10.152;2022-07-17T11:00:35;4.63;;;1.02;;
26512;SDS011;14186;53.822;10.152;2022-07-17T11:05:37;3.45;;;0.88;;
26512;SDS011;14186;53.822;10.152;2022-07-17T11:10:38;4.82;;;1.33;;
26512;SDS011;14186;53.822;10.152;2022-07-17T11:15:41;5.40;;;0.98;;
26512;SDS011;14186;53.822;10.152;2022-07-17T11:20:51;2.53;;;0.73;;
26512;SDS011;14186;53.822;10.152;2022-07-17T11:25:55;7.13;;;1.13;;
26512;SDS011;14186;53.822;10.152;2022-07-17T11:35:58;3.22;;;1.13;;
26512;SDS011;14186;53.822;10.152;2022-07-17T11:40:58;3.10;;;0.80;;
26512;SDS011;14186;53.822;10.152;2022-07-17T11:45:58;1.88;;;0.68;;
26512;SDS011;14186;53.822;10.152;2022-07-17T11:51:00;5.38;;;1.33;;
26512;SDS011;14186;53.822;10.152;2022-07-17T11:56:00;5.07;;;1.00;;
26512;SDS011;14186;53.822;10.152;2022-07-17T12:01:01;2.85;;;0.73;;
26512;SDS011;14186;53.822;10.152;2022-07-17T12:06:03;4.63;;;0.90;;
26512;SDS011;14186;53.822;10.152;2022-07-17T12:11:04;4.68;;;1.02;;
26512;SDS011;14186;53.822;10.152;2022-07-17T12:16:17;4.22;;;1.15;;
26512;SDS011;14186;53.822;10.152;2022-07-17T12:21:19;6.00;;;1.25;;
26512;SDS011;14186;53.822;10.152;2022-07-17T12:26:20;4.88;;;1.10;;
26512;SDS011;14186;53.822;10.152;2022-07-17T12:31:21;5.47;;;1.15;;
26512;SDS011;14186;53.822;10.152;2022-07-17T12:36:22;6.72;;;0.82;;
26512;SDS011;14186;53.822;10.152;2022-07-17T12:41:23;3.78;;;0.98;;
26512;SDS011;14186;53.822;10.152;2022-07-17T12:46:23;3.13;;;0.80;;
26512;SDS011;14186;53.822;10.152;2022-07-17T12:51:26;7.32;;;1.77;;
26512;SDS011;14186;53.822;10.152;2022-07-17T12:56:26;3.55;;;0.70;;
26512;SDS011;14186;53.822;10.152;2022-07-17T13:01:26;4.00;;;0.90;;
26512;SDS011;14186;53.822;10.152;2022-07-17T13:06:30;4.75;;;0.90;;
26512;SDS011;14186;53.822;10.152;2022-07-17T13:11:31;3.85;;;1.05;;
26512;SDS011;14186;53.822;10.152;2022-07-17T13:16:31;3.70;;;1.15;;
26512;SDS011;14186;53.822;10.152;2022-07-17T13:21:33;2.60;;;0.68;;
26512;SDS011;14186;53.822;10.152;2022-07-17T13:26:33;2.53;;;0.70;;
26512;SDS011;14186;53.822;10.152;2022-07-17T13:31:33;3.60;;;0.85;;
26512;SDS011;14186;53.822;10.152;2022-07-17T13:36:35;5.57;;;1.13;;
26512;SDS011;14186;53.822;10.152;2022-07-17T13:41:36;3.63;;;1.20;;
26512;SDS011;14186;53.822;10.152;2022-07-17T13:46:36;2.90;;;0.90;;
26512;SDS011;14186;53.822;10.152;2022-07-17T13:51:37;3.38;;;1.00;;
26512;SDS011;14186;53.822;10.152;2022-07-17T13:56:38;3.45;;;1.08;;
26512;SDS011;14186;53.822;10.152;2022-07-17T14:01:38;3.65;;;1.20;;
26512;SDS011;14186;53.822;10.152;2022-07-17T14:06:40;3.25;;;0.82;;
26512;SDS011;14186;53.822;10.152;2022-07-17T14:11:40;2.13;;;0.80;;
26512;SDS011;14186;53.822;10.152;2022-07-17T14:16:40;4.93;;;1.08;;
26512;SDS011;14186;53.822;10.152;2022-07-17T14:21:42;4.00;;;1.02;;
26512;SDS011;14186;53.822;10.152;2022-07-17T14:26:42;3.45;;;1.10;;
26512;SDS011;14186;53.822;10.152;2022-07-17T14:31:42;3.90;;;1.40;;
26512;SDS011;14186;53.822;10.152;2022-07-17T14:36:44;5.18;;;1.35;;
26512;SDS011;14186;53.822;10.152;2022-07-17T14:41:44;2.80;;;1.38;;
26512;SDS011;14186;53.822;10.152;2022-07-17T14:46:44;5.70;;;1.52;;
26512;SDS011;14186;53.822;10.152;2022-07-17T14:51:47;2.97;;;1.08;;
26512;SDS011;14186;53.822;10.152;2022-07-17T14:56:47;3.95;;;1.30;;
26512;SDS011;14186;53.822;10.152;2022-07-17T15:01:47;4.90;;;1.42;;
26512;SDS011;14186;53.822;10.152;2022-07-17T15:06:50;5.45;;;1.60;;
26512;SDS011;14186;53.822;10.152;2022-07-17T15:11:50;5.35;;;1.65;;
26512;SDS011;14186;53.822;10.152;2022-07-17T15:16:51;3.80;;;1.40;;
26512;SDS011;14186;53.822;10.152;2022-07-17T15:21:53;5.35;;;1.75;;
26512;SDS011;14186;53.822;10.152;2022-07-17T15:26:53;4.55;;;1.80;;
26512;SDS011;14186;53.822;10.152;2022-07-17T15:31:54;3.78;;;1.50;;
26512;SDS011;14186;53.822;10.152;2022-07-17T15:36:55;4.22;;;1.65;;
26512;SDS011;14186;53.822;10.152;2022-07-17T15:41:56;6.43;;;2.08;;
26512;SDS011;14186;53.822;10.152;2022-07-17T15:46:56;4.07;;;2.05;;
26512;SDS011;14186;53.822;10.152;2022-07-17T15:51:57;5.07;;;2.13;;
26512;SDS011;14186;53.822;10.152;2022-07-17T15:57:04;5.85;;;2.22;;
26512;SDS011;14186;53.822;10.152;2022-07-17T16:02:05;6.28;;;2.90;;
26512;SDS011;14186;53.822;10.152;2022-07-17T16:07:06;4.93;;;2.10;;
26512;SDS011;14186;53.822;10.152;2022-07-17T16:12:07;5.35;;;2.80;;
26512;SDS011;14186;53.822;10.152;2022-07-17T16:17:07;6.45;;;2.92;;
26512;SDS011;14186;53.822;10.152;2022-07-17T16:22:09;10.00;;;4.05;;
26512;SDS011;14186;53.822;10.152;2022-07-17T16:27:09;5.05;;;2.45;;
26512;SDS011;14186;53.822;10.152;2022-07-17T16:32:09;5.35;;;2.20;;
26512;SDS011;14186;53.822;10.152;2022-07-17T16:37:11;3.85;;;2.42;;
26512;SDS011;14186;53.822;10.152;2022-07-17T16:42:11;6.25;;;2.17;;
26512;SDS011;14186;53.822;10.152;2022-07-17T16:47:12;4.30;;;2.50;;
26512;SDS011;14186;53.822;10.152;2022-07-17T16:52:14;4.63;;;1.35;;
26512;SDS011;14186;53.822;10.152;2022-07-17T16:57:14;5.57;;;1.40;;
26512;SDS011;14186;53.822;10.152;2022-07-17T17:02:14;5.87;;;1.90;;
26512;SDS011;14186;53.822;10.152;2022-07-17T17:07:16;3.35;;;1.38;;
26512;SDS011;14186;53.822;10.152;2022-07-17T17:12:16;2.95;;;1.17;;
26512;SDS011;14186;53.822;10.152;2022-07-17T17:17:16;5.05;;;1.75;;
26512;SDS011;14186;53.822;10.152;2022-07-17T17:22:18;4.60;;;1.42;;
26512;SDS011;14186;53.822;10.152;2022-07-17T17:27:18;4.57;;;1.30;;
26512;SDS011;14186;53.822;10.152;2022-07-17T17:32:19;3.78;;;1.85;;
26512;SDS011;14186;53.822;10.152;2022-07-17T17:37:27;4.22;;;1.52;;
26512;SDS011;14186;53.822;10.152;2022-07-17T17:42:27;3.78;;;1.50;;
26512;SDS011;14186;53.822;10.152;2022-07-17T17:47:28;3.75;;;1.30;;
26512;SDS011;14186;53.822;10.152;2022-07-17T17:52:30;6.33;;;2.10;;
26512;SDS011;14186;53.822;10.152;2022-07-17T17:57:30;3.42;;;1.48;;
26512;SDS011;14186;53.822;10.152;2022-07-17T18:02:31;3.97;;;1.30;;
26512;SDS011;14186;53.822;10.152;2022-07-17T18:07:32;3.47;;;1.38;;
26512;SDS011;14186;53.822;10.152;2022-07-17T18:12:33;2.72;;;1.20;;
26512;SDS011;14186;53.822;10.152;2022-07-17T18:17:33;5.10;;;1.57;;
26512;SDS011;14186;53.822;10.152;2022-07-17T18:22:35;5.30;;;1.55;;
26512;SDS011;14186;53.822;10.152;2022-07-17T18:27:35;5.10;;;1.67;;
26512;SDS011;14186;53.822;10.152;2022-07-17T18:32:36;3.15;;;1.50;;
26512;SDS011;14186;53.822;10.152;2022-07-17T18:37:37;4.25;;;1.70;;
26512;SDS011;14186;53.822;10.152;2022-07-17T18:42:37;5.50;;;1.90;;
26512;SDS011;14186;53.822;10.152;2022-07-17T18:47:38;4.00;;;1.58;;
26512;SDS011;14186;53.822;10.152;2022-07-17T18:52:40;4.60;;;2.00;;
26512;SDS011;14186;53.822;10.152;2022-07-17T18:57:41;3.80;;;1.70;;
26512;SDS011;14186;53.822;10.152;2022-07-17T19:02:42;5.20;;;1.63;;
26512;SDS011;14186;53.822;10.152;2022-07-17T19:07:43;5.47;;;1.50;;
26512;SDS011;14186;53.822;10.152;2022-07-17T19:12:44;5.60;;;1.92;;
26512;SDS011;14186;53.822;10.152;2022-07-17T19:17:45;5.72;;;2.28;;
26512;SDS011;14186;53.822;10.152;2022-07-17T19:22:48;3.78;;;1.38;;
26512;SDS011;14186;53.822;10.152;2022-07-17T19:27:49;3.25;;;1.42;;
26512;SDS011;14186;53.822;10.152;2022-07-17T19:32:49;4.82;;;1.83;;
26512;SDS011;14186;53.822;10.152;2022-07-17T19:37:50;3.65;;;1.55;;
26512;SDS011;14186;53.822;10.152;2022-07-17T19:42:51;4.80;;;1.90;;
26512;SDS011;14186;53.822;10.152;2022-07-17T19:47:51;4.50;;;1.80;;
26512;SDS011;14186;53.822;10.152;2022-07-17T19:52:53;5.45;;;1.83;;
26512;SDS011;14186;53.822;10.152;2022-07-17T19:57:55;4.13;;;1.80;;
26512;SDS011;14186;53.822;10.152;2022-07-17T20:02:55;4.20;;;1.73;;
26512;SDS011;14186;53.822;10.152;2022-07-17T20:07:57;4.40;;;1.83;;
26512;SDS011;14186;53.822;10.152;2022-07-17T20:12:58;3.08;;;1.52;;
26512;SDS011;14186;53.822;10.152;2022-07-17T20:17:58;4.22;;;2.00;;
26512;SDS011;14186;53.822;10.152;2022-07-17T20:23:00;4.15;;;1.83;;
26512;SDS011;14186;53.822;10.152;2022-07-17T20:28:00;4.78;;;1.60;;
26512;SDS011;14186;53.822;10.152;2022-07-17T20:33:00;3.35;;;1.80;;
26512;SDS011;14186;53.822;10.152;2022-07-17T20:38:02;4.20;;;1.70;;
26512;SDS011;14186;53.822;10.152;2022-07-17T20:43:02;5.95;;;1.98;;
26512;SDS011;14186;53.822;10.152;2022-07-17T20:48:03;4.60;;;2.05;;
26512;SDS011;14186;53.822;10.152;2022-07-17T20:53:05;4.07;;;2.00;;
26512;SDS011;14186;53.822;10.152;2022-07-17T20:58:05;4.20;;;2.05;;
26512;SDS011;14186;53.822;10.152;2022-07-17T21:03:05;4.47;;;1.90;;
26512;SDS011;14186;53.822;10.152;2022-07-17T21:08:07;5.38;;;1.90;;
26512;SDS011;14186;53.822;10.152;2022-07-17T21:13:09;4.20;;;1.55;;
26512;SDS011;14186;53.822;10.152;2022-07-17T21:18:09;4.78;;;2.17;;
26512;SDS011;14186;53.822;10.152;2022-07-17T21:23:10;5.72;;;1.83;;
26512;SDS011;14186;53.822;10.152;2022-07-17T21:28:11;4.07;;;1.90;;
26512;SDS011;14186;53.822;10.152;2022-07-17T21:33:11;4.55;;;2.00;;
26512;SDS011;14186;53.822;10.152;2022-07-17T21:38:13;5.28;;;2.20;;
26512;SDS011;14186;53.822;10.152;2022-07-17T21:43:14;4.35;;;2.17;;
26512;SDS011;14186;53.822;10.152;2022-07-17T21:48:15;3.50;;;1.90;;
26512;SDS011;14186;53.822;10.152;2022-07-17T21:53:17;4.07;;;2.25;;
26512;SDS011;14186;53.822;10.152;2022-07-17T21:58:18;6.00;;;2.80;;
26512;SDS011;14186;53.822;10.152;2022-07-17T22:03:18;5.35;;;2.60;;
26512;SDS011;14186;53.822;10.152;2022-07-17T22:08:20;4.63;;;2.47;;
26512;SDS011;14186;53.822;10.152;2022-07-17T22:13:21;4.30;;;2.65;;
26512;SDS011;14186;53.822;10.152;2022-07-17T22:18:21;6.50;;;2.70;;
26512;SDS011;14186;53.822;10.152;2022-07-17T22:23:23;6.83;;;3.03;;
26512;SDS011;14186;53.822;10.152;2022-07-17T22:28:23;5.75;;;3.40;;
26512;SDS011;14186;53.822;10.152;2022-07-17T22:33:25;10.70;;;5.18;;
26512;SDS011;14186;53.822;10.152;2022-07-17T22:38:27;6.00;;;3.28;;
26512;SDS011;14186;53.822;10.152;2022-07-17T22:43:28;6.30;;;3.10;;
26512;SDS011;14186;53.822;10.152;2022-07-17T22:48:28;4.78;;;2.67;;
26512;SDS011;14186;53.822;10.152;2022-07-17T22:53:29;6.13;;;3.15;;
26512;SDS011;14186;53.822;10.152;2022-07-17T22:58:30;6.15;;;3.78;;
26512;SDS011;14186;53.822;10.152;2022-07-17T23:03:32;5.63;;;3.15;;
26512;SDS011;14186;53.822;10.152;2022-07-17T23:08:34;5.78;;;3.47;;
26512;SDS011;14186;53.822;10.152;2022-07-17T23:13:34;6.15;;;3.40;;
26512;SDS011;14186;53.822;10.152;2022-07-17T23:18:35;5.72;;;3.60;;
26512;SDS011;14186;53.822;10.152;2022-07-17T23:23:36;10.68;;;4.28;;
26512;SDS011;14186;53.822;10.152;2022-07-17T23:28:37;6.82;;;3.60;;
26512;SDS011;14186;53.822;10.152;2022-07-17T23:33:37;6.25;;;3.88;;
26512;SDS011;14186;53.822;10.152;2022-07-17T23:38:38;6.20;;;4.43;;
26512;SDS011;14186;53.822;10.152;2022-07-17T23:43:39;6.32;;;3.13;;
26512;SDS011;14186;53.822;10.152;2022-07-17T23:48:39;7.40;;;3.30;;
26512;SDS011;14186;53.822;10.152;2022-07-17T23:53:41;5.95;;;2.95;;
26512;SDS011;14186;53.822;10.152;2022-07-17T23:58:41;4.63;;;3.35;;
